sensor_id;sensor_type;location;lat;lon;timestamp;P1;durP1;ratioP1;P2;durP2;ratioP2
673;SDS011;319;48.764;9.174;2023-05-10T00:01:14;0.80;;;0.80;;
673;SDS011;319;48.764;9.174;2023-05-10T00:03:41;1.00;;;1.00;;
673;SDS011;319;48.764;9.174;2023-05-10T00:06:08;1.00;;;1.00;;
673;SDS011;319;48.764;9.174;2023-05-10T00:08:36;1.00;;;1.00;;
673;SDS011;319;48.764;9.174;2023-05-10T00:11:03;0.90;;;0.90;;
673;SDS011;319;48.764;9.174;2023-05-10T00:13:30;0.90;;;0.90;;
673;SDS011;319;48.764;9.174;2023-05-10T00:15:57;1.00;;;1.00;;
673;SDS011;319;48.764;9.174;2023-05-10T00:18:24;1.00;;;1.00;;
673;SDS011;319;48.764;9.174;2023-05-10T00:20:53;0.90;;;0.90;;
673;SDS011;319;48.764;9.174;2023-05-10T00:23:21;0.90;;;0.90;;
673;SDS011;319;48.764;9.174;2023-05-10T00:25:49;1.00;;;1.00;;
673;SDS011;319;48.764;9.174;2023-05-10T00:28:16;1.00;;;1.00;;
673;SDS011;319;48.764;9.174;2023-05-10T00:30:43;1.00;;;1.00;;
673;SDS011;319;48.764;9.174;2023-05-10T00:33:10;1.00;;;1.00;;
673;SDS011;319;48.764;9.174;2023-05-10T00:35:37;0.90;;;0.90;;
673;SDS011;319;48.764;9.174;2023-05-10T00:38:04;0.90;;;0.90;;
673;SDS011;319;48.764;9.174;2023-05-10T00:40:31;0.90;;;0.90;;
673;SDS011;319;48.764;9.174;2023-05-10T00:42:59;1.00;;;1.00;;
673;SDS011;319;48.764;9.174;2023-05-10T00:45:26;0.90;;;0.90;;
673;SDS011;319;48.764;9.174;2023-05-10T00:47:53;0.80;;;0.80;;
673;SDS011;319;48.764;9.174;2023-05-10T00:50:21;1.00;;;1.00;;
673;SDS011;319;48.764;9.174;2023-05-10T00:52:48;1.00;;;1.00;;
673;SDS011;319;48.764;9.174;2023-05-10T00:55:15;1.00;;;1.00;;
673;SDS011;319;48.764;9.174;2023-05-10T00:57:43;1.00;;;1.00;;
673;SDS011;319;48.764;9.174;2023-05-10T01:00:12;1.00;;;1.00;;
673;SDS011;319;48.764;9.174;2023-05-10T01:02:43;0.90;;;0.90;;
673;SDS011;319;48.764;9.174;2023-05-10T01:05:10;1.40;;;1.40;;
673;SDS011;319;48.764;9.174;2023-05-10T01:07:37;0.90;;;0.90;;
673;SDS011;319;48.764;9.174;2023-05-10T01:10:04;0.90;;;0.90;;
673;SDS011;319;48.764;9.174;2023-05-10T01:12:32;1.00;;;1.00;;
673;SDS011;319;48.764;9.174;2023-05-10T01:15:00;1.10;;;1.10;;
673;SDS011;319;48.764;9.174;2023-05-10T01:17:29;1.03;;;1.03;;
673;SDS011;319;48.764;9.174;2023-05-10T01:19:56;1.30;;;1.30;;
673;SDS011;319;48.764;9.174;2023-05-10T01:22:32;1.50;;;1.50;;
673;SDS011;319;48.764;9.174;2023-05-10T01:25:19;1.90;;;1.90;;
673;SDS011;319;48.764;9.174;2023-05-10T01:34:36;0.97;;;0.97;;
673;SDS011;319;48.764;9.174;2023-05-10T01:37:09;1.10;;;1.10;;
673;SDS011;319;48.764;9.174;2023-05-10T01:39:42;1.10;;;1.10;;
673;SDS011;319;48.764;9.174;2023-05-10T01:42:14;1.20;;;1.20;;
673;SDS011;319;48.764;9.174;2023-05-10T01:44:46;1.30;;;1.30;;
673;SDS011;319;48.764;9.174;2023-05-10T01:47:20;1.20;;;1.20;;
673;SDS011;319;48.764;9.174;2023-05-10T01:49:54;1.20;;;1.20;;
673;SDS011;319;48.764;9.174;2023-05-10T01:52:25;1.20;;;1.20;;
673;SDS011;319;48.764;9.174;2023-05-10T01:54:58;1.30;;;1.30;;
673;SDS011;319;48.764;9.174;2023-05-10T01:57:30;1.30;;;1.30;;
673;SDS011;319;48.764;9.174;2023-05-10T02:00:00;1.10;;;1.10;;
673;SDS011;319;48.764;9.174;2023-05-10T02:02:29;1.10;;;1.10;;
673;SDS011;319;48.764;9.174;2023-05-10T02:05:00;1.00;;;1.00;;
673;SDS011;319;48.764;9.174;2023-05-10T02:07:30;1.00;;;1.00;;
673;SDS011;319;48.764;9.174;2023-05-10T02:09:58;1.00;;;1.00;;
673;SDS011;319;48.764;9.174;2023-05-10T02:12:26;1.00;;;1.00;;
673;SDS011;319;48.764;9.174;2023-05-10T02:14:54;1.00;;;1.00;;
673;SDS011;319;48.764;9.174;2023-05-10T02:17:22;1.00;;;1.00;;
673;SDS011;319;48.764;9.174;2023-05-10T02:19:51;1.00;;;1.00;;
673;SDS011;319;48.764;9.174;2023-05-10T02:22:20;0.90;;;0.90;;
673;SDS011;319;48.764;9.174;2023-05-10T02:24:49;0.90;;;0.90;;
673;SDS011;319;48.764;9.174;2023-05-10T02:27:16;0.90;;;0.90;;
673;SDS011;319;48.764;9.174;2023-05-10T02:29:45;0.90;;;0.90;;
673;SDS011;319;48.764;9.174;2023-05-10T02:32:14;0.90;;;0.90;;
673;SDS011;319;48.764;9.174;2023-05-10T02:34:42;1.00;;;1.00;;
673;SDS011;319;48.764;9.174;2023-05-10T02:37:11;1.00;;;1.00;;
673;SDS011;319;48.764;9.174;2023-05-10T02:39:41;1.00;;;1.00;;
673;SDS011;319;48.764;9.174;2023-05-10T02:42:11;1.00;;;1.00;;
673;SDS011;319;48.764;9.174;2023-05-10T02:44:42;1.00;;;1.00;;
673;SDS011;319;48.764;9.174;2023-05-10T02:47:11;0.90;;;0.90;;
673;SDS011;319;48.764;9.174;2023-05-10T02:49:38;1.00;;;1.00;;
673;SDS011;319;48.764;9.174;2023-05-10T02:52:06;1.10;;;1.10;;
673;SDS011;319;48.764;9.174;2023-05-10T02:54:35;0.90;;;0.90;;
673;SDS011;319;48.764;9.174;2023-05-10T02:57:11;1.00;;;1.00;;
673;SDS011;319;48.764;9.174;2023-05-10T02:59:44;0.90;;;0.90;;
673;SDS011;319;48.764;9.174;2023-05-10T03:02:11;1.00;;;1.00;;
673;SDS011;319;48.764;9.174;2023-05-10T03:04:39;0.90;;;0.90;;
673;SDS011;319;48.764;9.174;2023-05-10T03:07:06;1.00;;;1.00;;
673;SDS011;319;48.764;9.174;2023-05-10T03:09:33;0.90;;;0.90;;
673;SDS011;319;48.764;9.174;2023-05-10T03:12:02;0.90;;;0.90;;
673;SDS011;319;48.764;9.174;2023-05-10T03:14:36;1.00;;;1.00;;
673;SDS011;319;48.764;9.174;2023-05-10T03:17:11;0.90;;;0.90;;
673;SDS011;319;48.764;9.174;2023-05-10T03:19:46;0.90;;;0.90;;
673;SDS011;319;48.764;9.174;2023-05-10T03:22:20;1.00;;;1.00;;
673;SDS011;319;48.764;9.174;2023-05-10T03:24:50;0.90;;;0.90;;
673;SDS011;319;48.764;9.174;2023-05-10T03:27:21;0.90;;;0.90;;
673;SDS011;319;48.764;9.174;2023-05-10T03:29:50;1.00;;;1.00;;
673;SDS011;319;48.764;9.174;2023-05-10T03:32:18;1.00;;;1.00;;
673;SDS011;319;48.764;9.174;2023-05-10T03:34:45;0.90;;;0.90;;
673;SDS011;319;48.764;9.174;2023-05-10T03:37:12;0.90;;;0.90;;
673;SDS011;319;48.764;9.174;2023-05-10T03:39:39;1.00;;;1.00;;
673;SDS011;319;48.764;9.174;2023-05-10T03:42:06;1.00;;;1.00;;
673;SDS011;319;48.764;9.174;2023-05-10T03:44:34;1.00;;;1.00;;
673;SDS011;319;48.764;9.174;2023-05-10T03:47:02;0.90;;;0.90;;
673;SDS011;319;48.764;9.174;2023-05-10T03:49:29;1.30;;;1.30;;
673;SDS011;319;48.764;9.174;2023-05-10T03:51:55;1.50;;;1.50;;
673;SDS011;319;48.764;9.174;2023-05-10T03:54:22;1.80;;;1.80;;
673;SDS011;319;48.764;9.174;2023-05-10T03:56:49;2.10;;;2.10;;
673;SDS011;319;48.764;9.174;2023-05-10T03:59:16;2.20;;;2.20;;
673;SDS011;319;48.764;9.174;2023-05-10T04:01:45;1.60;;;1.60;;
673;SDS011;319;48.764;9.174;2023-05-10T04:04:12;1.73;;;1.73;;
673;SDS011;319;48.764;9.174;2023-05-10T04:06:39;1.20;;;1.20;;
673;SDS011;319;48.764;9.174;2023-05-10T04:09:06;1.27;;;1.27;;
673;SDS011;319;48.764;9.174;2023-05-10T04:11:33;1.20;;;1.20;;
673;SDS011;319;48.764;9.174;2023-05-10T04:14:00;1.20;;;1.20;;
673;SDS011;319;48.764;9.174;2023-05-10T04:16:27;1.80;;;1.80;;
673;SDS011;319;48.764;9.174;2023-05-10T04:18:55;2.30;;;2.30;;
673;SDS011;319;48.764;9.174;2023-05-10T04:21:22;1.80;;;1.80;;
673;SDS011;319;48.764;9.174;2023-05-10T04:23:49;2.00;;;2.00;;
673;SDS011;319;48.764;9.174;2023-05-10T04:26:16;1.80;;;1.80;;
673;SDS011;319;48.764;9.174;2023-05-10T04:28:43;2.10;;;2.10;;
673;SDS011;319;48.764;9.174;2023-05-10T04:31:10;2.13;;;2.13;;
673;SDS011;319;48.764;9.174;2023-05-10T04:33:37;2.00;;;2.00;;
673;SDS011;319;48.764;9.174;2023-05-10T04:36:06;2.00;;;2.00;;
673;SDS011;319;48.764;9.174;2023-05-10T04:38:34;1.90;;;1.90;;
673;SDS011;319;48.764;9.174;2023-05-10T04:41:04;2.30;;;2.30;;
673;SDS011;319;48.764;9.174;2023-05-10T04:43:31;1.93;;;1.93;;
673;SDS011;319;48.764;9.174;2023-05-10T04:45:58;1.90;;;1.90;;
673;SDS011;319;48.764;9.174;2023-05-10T04:48:26;1.80;;;1.80;;
673;SDS011;319;48.764;9.174;2023-05-10T04:50:53;2.00;;;2.00;;
673;SDS011;319;48.764;9.174;2023-05-10T04:53:21;1.80;;;1.80;;
673;SDS011;319;48.764;9.174;2023-05-10T04:55:48;1.90;;;1.90;;
673;SDS011;319;48.764;9.174;2023-05-10T04:58:15;1.70;;;1.70;;
673;SDS011;319;48.764;9.174;2023-05-10T05:00:42;1.80;;;1.80;;
673;SDS011;319;48.764;9.174;2023-05-10T05:03:09;1.80;;;1.80;;
673;SDS011;319;48.764;9.174;2023-05-10T05:05:36;1.70;;;1.70;;
673;SDS011;319;48.764;9.174;2023-05-10T05:08:03;1.70;;;1.70;;
673;SDS011;319;48.764;9.174;2023-05-10T05:10:31;1.70;;;1.70;;
673;SDS011;319;48.764;9.174;2023-05-10T05:12:58;1.70;;;1.70;;
673;SDS011;319;48.764;9.174;2023-05-10T05:15:25;1.80;;;1.80;;
673;SDS011;319;48.764;9.174;2023-05-10T05:17:52;2.40;;;2.40;;
673;SDS011;319;48.764;9.174;2023-05-10T05:20:19;1.27;;;1.27;;
673;SDS011;319;48.764;9.174;2023-05-10T05:22:46;1.00;;;1.00;;
673;SDS011;319;48.764;9.174;2023-05-10T05:25:13;1.00;;;1.00;;
673;SDS011;319;48.764;9.174;2023-05-10T05:27:41;0.87;;;0.87;;
673;SDS011;319;48.764;9.174;2023-05-10T05:30:08;0.90;;;0.90;;
673;SDS011;319;48.764;9.174;2023-05-10T05:32:36;0.90;;;0.90;;
673;SDS011;319;48.764;9.174;2023-05-10T05:35:03;0.87;;;0.87;;
673;SDS011;319;48.764;9.174;2023-05-10T05:37:30;1.00;;;1.00;;
673;SDS011;319;48.764;9.174;2023-05-10T05:40:00;1.00;;;1.00;;
673;SDS011;319;48.764;9.174;2023-05-10T05:42:28;0.90;;;0.90;;
673;SDS011;319;48.764;9.174;2023-05-10T05:44:56;0.90;;;0.90;;
673;SDS011;319;48.764;9.174;2023-05-10T05:47:23;0.90;;;0.90;;
673;SDS011;319;48.764;9.174;2023-05-10T05:49:50;0.90;;;0.90;;
673;SDS011;319;48.764;9.174;2023-05-10T05:52:17;1.00;;;1.00;;
673;SDS011;319;48.764;9.174;2023-05-10T05:54:44;0.93;;;0.93;;
673;SDS011;319;48.764;9.174;2023-05-10T05:57:12;0.90;;;0.90;;
673;SDS011;319;48.764;9.174;2023-05-10T05:59:39;0.90;;;0.90;;
673;SDS011;319;48.764;9.174;2023-05-10T06:02:10;0.83;;;0.83;;
673;SDS011;319;48.764;9.174;2023-05-10T06:04:37;1.00;;;1.00;;
673;SDS011;319;48.764;9.174;2023-05-10T06:07:06;0.90;;;0.90;;
673;SDS011;319;48.764;9.174;2023-05-10T06:09:33;0.90;;;0.90;;
673;SDS011;319;48.764;9.174;2023-05-10T06:12:06;0.90;;;0.90;;
673;SDS011;319;48.764;9.174;2023-05-10T06:14:33;0.90;;;0.90;;
673;SDS011;319;48.764;9.174;2023-05-10T06:17:00;0.80;;;0.80;;
673;SDS011;319;48.764;9.174;2023-05-10T06:19:30;0.90;;;0.90;;
673;SDS011;319;48.764;9.174;2023-05-10T06:21:57;0.90;;;0.90;;
673;SDS011;319;48.764;9.174;2023-05-10T06:24:24;0.90;;;0.90;;
673;SDS011;319;48.764;9.174;2023-05-10T06:26:52;0.90;;;0.90;;
673;SDS011;319;48.764;9.174;2023-05-10T06:29:19;0.90;;;0.90;;
673;SDS011;319;48.764;9.174;2023-05-10T06:31:45;0.80;;;0.80;;
673;SDS011;319;48.764;9.174;2023-05-10T06:34:13;0.80;;;0.80;;
673;SDS011;319;48.764;9.174;2023-05-10T06:36:41;1.10;;;1.10;;
673;SDS011;319;48.764;9.174;2023-05-10T06:39:09;0.90;;;0.90;;
673;SDS011;319;48.764;9.174;2023-05-10T06:41:37;0.90;;;0.90;;
673;SDS011;319;48.764;9.174;2023-05-10T06:44:07;0.90;;;0.90;;
673;SDS011;319;48.764;9.174;2023-05-10T06:46:33;0.90;;;0.90;;
673;SDS011;319;48.764;9.174;2023-05-10T06:49:00;0.90;;;0.90;;
673;SDS011;319;48.764;9.174;2023-05-10T06:51:27;0.90;;;0.90;;
673;SDS011;319;48.764;9.174;2023-05-10T06:53:57;0.90;;;0.90;;
673;SDS011;319;48.764;9.174;2023-05-10T06:56:27;0.90;;;0.90;;
673;SDS011;319;48.764;9.174;2023-05-10T06:58:56;0.90;;;0.90;;
673;SDS011;319;48.764;9.174;2023-05-10T07:01:25;0.87;;;0.87;;
673;SDS011;319;48.764;9.174;2023-05-10T07:03:53;1.00;;;1.00;;
673;SDS011;319;48.764;9.174;2023-05-10T07:06:21;0.97;;;0.97;;
673;SDS011;319;48.764;9.174;2023-05-10T07:08:48;0.90;;;0.90;;
673;SDS011;319;48.764;9.174;2023-05-10T07:11:20;0.90;;;0.90;;
673;SDS011;319;48.764;9.174;2023-05-10T07:13:48;0.90;;;0.90;;
673;SDS011;319;48.764;9.174;2023-05-10T07:16:15;0.90;;;0.90;;
673;SDS011;319;48.764;9.174;2023-05-10T07:18:55;0.90;;;0.90;;
673;SDS011;319;48.764;9.174;2023-05-10T07:21:31;0.93;;;0.93;;
673;SDS011;319;48.764;9.174;2023-05-10T07:24:00;1.00;;;1.00;;
673;SDS011;319;48.764;9.174;2023-05-10T07:26:29;0.97;;;0.97;;
673;SDS011;319;48.764;9.174;2023-05-10T07:28:56;0.90;;;0.90;;
673;SDS011;319;48.764;9.174;2023-05-10T07:31:23;0.93;;;0.93;;
673;SDS011;319;48.764;9.174;2023-05-10T07:33:50;0.90;;;0.90;;
673;SDS011;319;48.764;9.174;2023-05-10T07:36:17;0.90;;;0.90;;
673;SDS011;319;48.764;9.174;2023-05-10T07:38:43;0.90;;;0.90;;
673;SDS011;319;48.764;9.174;2023-05-10T07:41:10;0.90;;;0.90;;
673;SDS011;319;48.764;9.174;2023-05-10T07:43:40;0.80;;;0.80;;
673;SDS011;319;48.764;9.174;2023-05-10T07:46:07;0.80;;;0.80;;
673;SDS011;319;48.764;9.174;2023-05-10T07:48:35;0.80;;;0.80;;
673;SDS011;319;48.764;9.174;2023-05-10T07:51:02;0.90;;;0.90;;
673;SDS011;319;48.764;9.174;2023-05-10T07:53:29;0.90;;;0.90;;
673;SDS011;319;48.764;9.174;2023-05-10T07:55:57;0.90;;;0.90;;
673;SDS011;319;48.764;9.174;2023-05-10T07:58:24;0.90;;;0.90;;
673;SDS011;319;48.764;9.174;2023-05-10T08:00:53;0.90;;;0.90;;
673;SDS011;319;48.764;9.174;2023-05-10T08:03:21;0.90;;;0.90;;
673;SDS011;319;48.764;9.174;2023-05-10T08:05:48;0.83;;;0.83;;
673;SDS011;319;48.764;9.174;2023-05-10T08:08:15;0.90;;;0.90;;
673;SDS011;319;48.764;9.174;2023-05-10T08:10:42;0.80;;;0.80;;
673;SDS011;319;48.764;9.174;2023-05-10T08:13:09;0.90;;;0.90;;
673;SDS011;319;48.764;9.174;2023-05-10T08:15:36;0.90;;;0.90;;
673;SDS011;319;48.764;9.174;2023-05-10T08:18:04;0.80;;;0.80;;
673;SDS011;319;48.764;9.174;2023-05-10T08:20:31;1.00;;;1.00;;
673;SDS011;319;48.764;9.174;2023-05-10T08:22:58;0.90;;;0.90;;
673;SDS011;319;48.764;9.174;2023-05-10T08:25:25;0.80;;;0.80;;
673;SDS011;319;48.764;9.174;2023-05-10T08:27:52;1.00;;;1.00;;
673;SDS011;319;48.764;9.174;2023-05-10T08:30:19;0.90;;;0.90;;
673;SDS011;319;48.764;9.174;2023-05-10T08:32:46;0.90;;;0.90;;
673;SDS011;319;48.764;9.174;2023-05-10T08:35:15;0.90;;;0.90;;
673;SDS011;319;48.764;9.174;2023-05-10T08:37:42;0.90;;;0.90;;
673;SDS011;319;48.764;9.174;2023-05-10T08:40:09;0.90;;;0.90;;
673;SDS011;319;48.764;9.174;2023-05-10T08:42:40;0.90;;;0.90;;
673;SDS011;319;48.764;9.174;2023-05-10T08:45:09;0.90;;;0.90;;
673;SDS011;319;48.764;9.174;2023-05-10T08:47:37;0.90;;;0.90;;
673;SDS011;319;48.764;9.174;2023-05-10T08:50:05;0.90;;;0.90;;
673;SDS011;319;48.764;9.174;2023-05-10T08:52:35;0.90;;;0.90;;
673;SDS011;319;48.764;9.174;2023-05-10T08:55:06;0.90;;;0.90;;
673;SDS011;319;48.764;9.174;2023-05-10T08:57:35;1.00;;;1.00;;
673;SDS011;319;48.764;9.174;2023-05-10T09:00:03;0.90;;;0.90;;
673;SDS011;319;48.764;9.174;2023-05-10T09:02:31;0.87;;;0.87;;
673;SDS011;319;48.764;9.174;2023-05-10T09:04:58;0.90;;;0.90;;
673;SDS011;319;48.764;9.174;2023-05-10T09:07:26;0.90;;;0.90;;
673;SDS011;319;48.764;9.174;2023-05-10T09:09:54;0.90;;;0.90;;
673;SDS011;319;48.764;9.174;2023-05-10T09:12:23;0.90;;;0.90;;
673;SDS011;319;48.764;9.174;2023-05-10T09:14:50;0.90;;;0.90;;
673;SDS011;319;48.764;9.174;2023-05-10T09:17:18;0.90;;;0.90;;
673;SDS011;319;48.764;9.174;2023-05-10T09:19:45;0.90;;;0.90;;
673;SDS011;319;48.764;9.174;2023-05-10T09:22:12;0.90;;;0.90;;
673;SDS011;319;48.764;9.174;2023-05-10T09:24:39;0.90;;;0.90;;
673;SDS011;319;48.764;9.174;2023-05-10T09:27:11;0.90;;;0.90;;
673;SDS011;319;48.764;9.174;2023-05-10T09:29:38;0.90;;;0.90;;
673;SDS011;319;48.764;9.174;2023-05-10T09:32:05;0.80;;;0.80;;
673;SDS011;319;48.764;9.174;2023-05-10T09:34:33;0.90;;;0.90;;
673;SDS011;319;48.764;9.174;2023-05-10T09:37:04;0.90;;;0.90;;
673;SDS011;319;48.764;9.174;2023-05-10T09:39:33;0.90;;;0.90;;
673;SDS011;319;48.764;9.174;2023-05-10T09:42:02;0.90;;;0.90;;
673;SDS011;319;48.764;9.174;2023-05-10T09:44:31;0.80;;;0.80;;
673;SDS011;319;48.764;9.174;2023-05-10T09:46:59;0.90;;;0.90;;
673;SDS011;319;48.764;9.174;2023-05-10T09:49:26;0.80;;;0.80;;
673;SDS011;319;48.764;9.174;2023-05-10T09:51:59;0.80;;;0.80;;
673;SDS011;319;48.764;9.174;2023-05-10T09:54:28;0.80;;;0.80;;
673;SDS011;319;48.764;9.174;2023-05-10T09:56:55;0.80;;;0.80;;
673;SDS011;319;48.764;9.174;2023-05-10T09:59:22;0.80;;;0.80;;
673;SDS011;319;48.764;9.174;2023-05-10T10:01:53;0.90;;;0.90;;
673;SDS011;319;48.764;9.174;2023-05-10T10:04:22;7.00;;;6.77;;
673;SDS011;319;48.764;9.174;2023-05-10T10:06:58;1.20;;;1.20;;
673;SDS011;319;48.764;9.174;2023-05-10T10:09:26;0.80;;;0.80;;
673;SDS011;319;48.764;9.174;2023-05-10T10:11:54;0.80;;;0.80;;
673;SDS011;319;48.764;9.174;2023-05-10T10:14:21;0.80;;;0.80;;
673;SDS011;319;48.764;9.174;2023-05-10T10:16:49;0.90;;;0.90;;
673;SDS011;319;48.764;9.174;2023-05-10T10:19:18;0.83;;;0.83;;
673;SDS011;319;48.764;9.174;2023-05-10T10:21:45;2.50;;;2.50;;
673;SDS011;319;48.764;9.174;2023-05-10T10:24:12;7.13;;;6.93;;
673;SDS011;319;48.764;9.174;2023-05-10T10:26:39;6.53;;;6.33;;
673;SDS011;319;48.764;9.174;2023-05-10T10:29:10;6.90;;;6.70;;
673;SDS011;319;48.764;9.174;2023-05-10T10:31:48;7.40;;;7.20;;
673;SDS011;319;48.764;9.174;2023-05-10T10:34:35;0.87;;;0.87;;
673;SDS011;319;48.764;9.174;2023-05-10T10:37:04;0.90;;;0.90;;
673;SDS011;319;48.764;9.174;2023-05-10T10:39:35;0.90;;;0.90;;
673;SDS011;319;48.764;9.174;2023-05-10T10:42:02;0.90;;;0.90;;
673;SDS011;319;48.764;9.174;2023-05-10T10:44:33;0.90;;;0.90;;
673;SDS011;319;48.764;9.174;2023-05-10T10:47:22;0.90;;;0.90;;
673;SDS011;319;48.764;9.174;2023-05-10T10:49:51;0.90;;;0.90;;
673;SDS011;319;48.764;9.174;2023-05-10T10:52:30;0.80;;;0.80;;
673;SDS011;319;48.764;9.174;2023-05-10T10:54:59;0.87;;;0.87;;
673;SDS011;319;48.764;9.174;2023-05-10T10:57:42;0.90;;;0.90;;
673;SDS011;319;48.764;9.174;2023-05-10T11:00:22;0.80;;;0.80;;
673;SDS011;319;48.764;9.174;2023-05-10T11:02:59;0.83;;;0.83;;
673;SDS011;319;48.764;9.174;2023-05-10T11:08:10;0.90;;;0.90;;
673;SDS011;319;48.764;9.174;2023-05-10T11:10:50;0.80;;;0.80;;
673;SDS011;319;48.764;9.174;2023-05-10T11:13:26;0.90;;;0.90;;
673;SDS011;319;48.764;9.174;2023-05-10T11:15:55;0.87;;;0.87;;
673;SDS011;319;48.764;9.174;2023-05-10T11:18:24;1.00;;;1.00;;
673;SDS011;319;48.764;9.174;2023-05-10T11:20:55;1.00;;;1.00;;
673;SDS011;319;48.764;9.174;2023-05-10T11:23:28;1.00;;;1.00;;
673;SDS011;319;48.764;9.174;2023-05-10T11:25:56;0.90;;;0.90;;
673;SDS011;319;48.764;9.174;2023-05-10T11:28:23;1.10;;;1.10;;
673;SDS011;319;48.764;9.174;2023-05-10T11:30:52;0.90;;;0.90;;
673;SDS011;319;48.764;9.174;2023-05-10T11:33:19;0.90;;;0.90;;
673;SDS011;319;48.764;9.174;2023-05-10T11:35:46;0.90;;;0.90;;
673;SDS011;319;48.764;9.174;2023-05-10T11:38:14;0.90;;;0.90;;
673;SDS011;319;48.764;9.174;2023-05-10T11:40:42;0.90;;;0.90;;
673;SDS011;319;48.764;9.174;2023-05-10T11:43:11;0.90;;;0.90;;
673;SDS011;319;48.764;9.174;2023-05-10T11:45:40;0.90;;;0.90;;
673;SDS011;319;48.764;9.174;2023-05-10T11:48:08;0.80;;;0.80;;
673;SDS011;319;48.764;9.174;2023-05-10T11:50:34;0.80;;;0.80;;
673;SDS011;319;48.764;9.174;2023-05-10T11:53:01;0.90;;;0.90;;
673;SDS011;319;48.764;9.174;2023-05-10T11:55:30;0.90;;;0.90;;
673;SDS011;319;48.764;9.174;2023-05-10T11:58:00;0.80;;;0.80;;
673;SDS011;319;48.764;9.174;2023-05-10T12:00:28;0.90;;;0.90;;
673;SDS011;319;48.764;9.174;2023-05-10T12:02:56;0.90;;;0.90;;
673;SDS011;319;48.764;9.174;2023-05-10T12:05:23;0.90;;;0.90;;
673;SDS011;319;48.764;9.174;2023-05-10T12:07:51;0.90;;;0.90;;
673;SDS011;319;48.764;9.174;2023-05-10T12:10:23;0.90;;;0.90;;
673;SDS011;319;48.764;9.174;2023-05-10T12:12:53;1.00;;;1.00;;
673;SDS011;319;48.764;9.174;2023-05-10T12:15:22;0.90;;;0.90;;
673;SDS011;319;48.764;9.174;2023-05-10T12:17:52;0.90;;;0.90;;
673;SDS011;319;48.764;9.174;2023-05-10T12:20:20;0.90;;;0.90;;
673;SDS011;319;48.764;9.174;2023-05-10T12:22:52;0.80;;;0.80;;
673;SDS011;319;48.764;9.174;2023-05-10T12:25:31;0.90;;;0.90;;
673;SDS011;319;48.764;9.174;2023-05-10T12:28:09;0.80;;;0.80;;
673;SDS011;319;48.764;9.174;2023-05-10T12:30:48;0.90;;;0.90;;
673;SDS011;319;48.764;9.174;2023-05-10T12:33:19;0.90;;;0.90;;
673;SDS011;319;48.764;9.174;2023-05-10T12:35:46;0.87;;;0.87;;
673;SDS011;319;48.764;9.174;2023-05-10T12:38:26;0.80;;;0.80;;
673;SDS011;319;48.764;9.174;2023-05-10T12:40:56;0.80;;;0.80;;
673;SDS011;319;48.764;9.174;2023-05-10T12:43:24;0.80;;;0.80;;
673;SDS011;319;48.764;9.174;2023-05-10T12:45:52;0.80;;;0.80;;
673;SDS011;319;48.764;9.174;2023-05-10T12:48:19;0.90;;;0.90;;
673;SDS011;319;48.764;9.174;2023-05-10T12:50:46;0.80;;;0.80;;
673;SDS011;319;48.764;9.174;2023-05-10T12:53:13;0.80;;;0.80;;
673;SDS011;319;48.764;9.174;2023-05-10T12:55:40;0.80;;;0.80;;
673;SDS011;319;48.764;9.174;2023-05-10T12:58:07;0.80;;;0.80;;
673;SDS011;319;48.764;9.174;2023-05-10T13:00:36;0.80;;;0.80;;
673;SDS011;319;48.764;9.174;2023-05-10T13:03:03;0.90;;;0.90;;
673;SDS011;319;48.764;9.174;2023-05-10T13:05:30;0.90;;;0.90;;
673;SDS011;319;48.764;9.174;2023-05-10T13:07:58;0.80;;;0.80;;
673;SDS011;319;48.764;9.174;2023-05-10T13:10:25;0.90;;;0.90;;
673;SDS011;319;48.764;9.174;2023-05-10T13:12:52;0.90;;;0.90;;
673;SDS011;319;48.764;9.174;2023-05-10T13:15:23;0.90;;;0.90;;
673;SDS011;319;48.764;9.174;2023-05-10T13:18:00;0.90;;;0.90;;
673;SDS011;319;48.764;9.174;2023-05-10T13:20:27;0.90;;;0.90;;
673;SDS011;319;48.764;9.174;2023-05-10T13:23:02;0.90;;;0.90;;
673;SDS011;319;48.764;9.174;2023-05-10T13:25:29;0.90;;;0.90;;
673;SDS011;319;48.764;9.174;2023-05-10T13:27:56;0.90;;;0.90;;
673;SDS011;319;48.764;9.174;2023-05-10T13:30:23;0.90;;;0.90;;
673;SDS011;319;48.764;9.174;2023-05-10T13:32:50;0.90;;;0.90;;
673;SDS011;319;48.764;9.174;2023-05-10T13:35:18;0.97;;;0.97;;
673;SDS011;319;48.764;9.174;2023-05-10T13:37:45;0.90;;;0.90;;
673;SDS011;319;48.764;9.174;2023-05-10T13:40:12;0.80;;;0.80;;
673;SDS011;319;48.764;9.174;2023-05-10T13:42:40;0.80;;;0.80;;
673;SDS011;319;48.764;9.174;2023-05-10T13:45:07;0.90;;;0.90;;
673;SDS011;319;48.764;9.174;2023-05-10T13:47:36;0.90;;;0.90;;
673;SDS011;319;48.764;9.174;2023-05-10T13:50:06;0.80;;;0.80;;
673;SDS011;319;48.764;9.174;2023-05-10T13:52:35;0.90;;;0.90;;
673;SDS011;319;48.764;9.174;2023-05-10T13:55:02;0.80;;;0.80;;
673;SDS011;319;48.764;9.174;2023-05-10T13:57:29;0.90;;;0.90;;
673;SDS011;319;48.764;9.174;2023-05-10T13:59:59;0.80;;;0.80;;
673;SDS011;319;48.764;9.174;2023-05-10T14:02:26;0.80;;;0.80;;
673;SDS011;319;48.764;9.174;2023-05-10T14:04:53;0.90;;;0.90;;
673;SDS011;319;48.764;9.174;2023-05-10T14:07:23;0.90;;;0.90;;
673;SDS011;319;48.764;9.174;2023-05-10T14:09:54;0.80;;;0.80;;
673;SDS011;319;48.764;9.174;2023-05-10T14:12:21;0.90;;;0.90;;
673;SDS011;319;48.764;9.174;2023-05-10T14:14:48;0.90;;;0.90;;
673;SDS011;319;48.764;9.174;2023-05-10T14:17:15;0.90;;;0.90;;
673;SDS011;319;48.764;9.174;2023-05-10T14:19:42;0.90;;;0.90;;
673;SDS011;319;48.764;9.174;2023-05-10T14:22:09;0.80;;;0.80;;
673;SDS011;319;48.764;9.174;2023-05-10T14:24:37;0.80;;;0.80;;
673;SDS011;319;48.764;9.174;2023-05-10T14:27:06;0.90;;;0.90;;
673;SDS011;319;48.764;9.174;2023-05-10T14:29:32;0.80;;;0.80;;
673;SDS011;319;48.764;9.174;2023-05-10T14:31:59;0.90;;;0.90;;
673;SDS011;319;48.764;9.174;2023-05-10T14:34:26;0.90;;;0.90;;
673;SDS011;319;48.764;9.174;2023-05-10T14:36:55;0.90;;;0.90;;
673;SDS011;319;48.764;9.174;2023-05-10T14:39:22;0.90;;;0.90;;
673;SDS011;319;48.764;9.174;2023-05-10T14:41:49;0.90;;;0.90;;
673;SDS011;319;48.764;9.174;2023-05-10T14:44:19;0.80;;;0.80;;
673;SDS011;319;48.764;9.174;2023-05-10T14:46:46;0.80;;;0.80;;
673;SDS011;319;48.764;9.174;2023-05-10T14:49:13;0.90;;;0.90;;
673;SDS011;319;48.764;9.174;2023-05-10T14:51:40;1.00;;;1.00;;
673;SDS011;319;48.764;9.174;2023-05-10T14:54:07;0.90;;;0.90;;
673;SDS011;319;48.764;9.174;2023-05-10T14:56:35;0.90;;;0.90;;
673;SDS011;319;48.764;9.174;2023-05-10T14:59:03;0.83;;;0.83;;
673;SDS011;319;48.764;9.174;2023-05-10T15:01:31;0.90;;;0.90;;
673;SDS011;319;48.764;9.174;2023-05-10T15:04:02;0.80;;;0.80;;
673;SDS011;319;48.764;9.174;2023-05-10T15:06:32;0.80;;;0.80;;
673;SDS011;319;48.764;9.174;2023-05-10T15:09:01;0.80;;;0.80;;
673;SDS011;319;48.764;9.174;2023-05-10T15:11:29;0.90;;;0.90;;
673;SDS011;319;48.764;9.174;2023-05-10T15:13:57;0.90;;;0.90;;
673;SDS011;319;48.764;9.174;2023-05-10T15:16:24;0.90;;;0.90;;
673;SDS011;319;48.764;9.174;2023-05-10T15:18:53;0.90;;;0.90;;
673;SDS011;319;48.764;9.174;2023-05-10T15:21:23;0.80;;;0.80;;
673;SDS011;319;48.764;9.174;2023-05-10T15:23:51;0.90;;;0.90;;
673;SDS011;319;48.764;9.174;2023-05-10T15:26:21;0.80;;;0.80;;
673;SDS011;319;48.764;9.174;2023-05-10T15:28:49;0.80;;;0.80;;
673;SDS011;319;48.764;9.174;2023-05-10T15:31:17;0.80;;;0.80;;
673;SDS011;319;48.764;9.174;2023-05-10T15:33:44;0.80;;;0.80;;
673;SDS011;319;48.764;9.174;2023-05-10T15:36:13;0.90;;;0.90;;
673;SDS011;319;48.764;9.174;2023-05-10T15:38:42;0.90;;;0.90;;
673;SDS011;319;48.764;9.174;2023-05-10T15:41:09;0.80;;;0.80;;
673;SDS011;319;48.764;9.174;2023-05-10T15:43:36;1.00;;;1.00;;
673;SDS011;319;48.764;9.174;2023-05-10T15:46:04;0.80;;;0.80;;
673;SDS011;319;48.764;9.174;2023-05-10T15:48:31;0.80;;;0.80;;
673;SDS011;319;48.764;9.174;2023-05-10T15:51:00;0.80;;;0.80;;
673;SDS011;319;48.764;9.174;2023-05-10T15:53:30;0.90;;;0.90;;
673;SDS011;319;48.764;9.174;2023-05-10T15:56:03;0.90;;;0.90;;
673;SDS011;319;48.764;9.174;2023-05-10T15:58:33;0.80;;;0.80;;
673;SDS011;319;48.764;9.174;2023-05-10T16:01:00;0.90;;;0.90;;
673;SDS011;319;48.764;9.174;2023-05-10T16:03:27;0.80;;;0.80;;